Time;durP1;ratioP1;P1;durP2;ratioP2;P2;SDS_P1;SDS_P2;PMS_P1;PMS_P2;Temp;Humidity;BMP_temperature;BMP_pressure;BME280_temperature;BME280_humidity;BME280_pressure;Samples;Min_cycle;Max_cycle;Signal;HPM_P1;HPM_P2
2022/10/01 00:00:22;;;;;;;28.63;20.77;;;22.40;65.60;;;;;;5058495;28;20024;-81
2022/10/01 00:02:48;;;;;;;26.13;20.35;;;22.40;65.00;;;;;;5058179;28;20036;-83
2022/10/01 00:05:13;;;;;;;24.75;20.42;;;22.40;65.30;;;;;;5058338;28;20028;-82
2022/10/01 00:07:43;;;;;;;24.50;19.77;;;22.30;65.70;;;;;;5057805;28;20032;-82
2022/10/01 00:10:11;;;;;;;27.88;21.38;;;22.20;65.80;;;;;;5055871;28;20035;-80
2022/10/01 00:12:38;;;;;;;28.58;21.13;;;22.10;66.00;;;;;;5075892;28;20021;-81
2022/10/01 00:15:08;;;;;;;30.35;22.85;;;22.10;66.00;;;;;;5055005;28;20407;-83
2022/10/01 00:17:37;;;;;;;27.08;22.08;;;22.20;65.70;;;;;;5057673;28;20094;-83
2022/10/01 00:20:05;;;;;;;27.27;21.63;;;22.20;65.70;;;;;;5057651;28;20040;-82
2022/10/01 00:22:32;;;;;;;23.23;19.85;;;22.30;65.80;;;;;;5052406;28;20045;-82
2022/10/01 00:24:58;;;;;;;32.53;23.52;;;22.30;65.50;;;;;;5053592;28;20416;-82
2022/10/01 00:27:28;;;;;;;22.35;18.77;;;22.30;65.40;;;;;;5050267;28;20021;-82
2022/10/01 00:29:54;;;;;;;24.90;20.20;;;22.30;65.80;;;;;;5054784;28;20451;-81
2022/10/01 00:32:20;;;;;;;22.27;17.38;;;22.30;65.50;;;;;;5052911;28;20025;-81
2022/10/01 00:34:47;;;;;;;21.85;17.65;;;22.20;65.70;;;;;;5055402;28;20447;-84
2022/10/01 00:37:14;;;;;;;26.58;20.15;;;21.50;67.40;;;;;;5054722;28;20118;-83
2022/10/01 00:39:45;;;;;;;28.13;22.02;;;20.70;70.50;;;;;;5054039;28;20380;-81
2022/10/01 00:42:17;;;;;;;22.10;18.35;;;20.80;69.80;;;;;;5052071;28;20036;-82
2022/10/01 00:44:43;;;;;;;26.92;18.50;;;20.70;70.50;;;;;;5053472;28;20037;-83
2022/10/01 00:47:27;;;;;;;30.42;22.65;;;20.50;70.40;;;;;;5052884;28;20377;-80
2022/10/01 00:50:15;;;;;;;27.48;21.40;;;20.40;72.00;;;;;;5054421;28;20031;-80
2022/10/01 00:52:45;;;;;;;24.25;19.88;;;20.70;71.10;;;;;;5053795;28;20496;-82
2022/10/01 00:55:17;;;;;;;24.58;20.73;;;21.00;69.70;;;;;;5051240;28;20021;-83
2022/10/01 00:57:44;;;;;;;27.92;21.95;;;21.20;69.10;;;;;;5055097;28;20037;-81
2022/10/01 01:00:12;;;;;;;27.23;21.25;;;21.30;68.80;;;;;;5052879;28;20425;-80
2022/10/01 01:02:39;;;;;;;24.45;19.83;;;21.50;68.30;;;;;;5054206;28;20533;-81
2022/10/01 01:05:12;;;;;;;23.48;18.55;;;21.60;67.50;;;;;;5054186;28;20087;-81
2022/10/01 01:07:45;;;;;;;25.40;19.75;;;20.60;70.80;;;;;;5054152;28;20100;-84
2022/10/01 01:10:13;;;;;;;28.33;20.75;;;20.20;72.40;;;;;;5054210;28;20032;-86
2022/10/01 01:13:06;;;;;;;47.33;26.80;;;20.40;71.90;;;;;;5054252;28;20029;-85
2022/10/01 01:16:01;;;;;;;31.27;23.92;;;20.80;70.80;;;;;;5052605;28;20025;-83
2022/10/01 01:18:46;;;;;;;28.42;22.05;;;21.10;70.20;;;;;;4997305;28;20034;-83
2022/10/01 01:21:26;;;;;;;32.58;23.30;;;21.40;68.70;;;;;;5013288;28;20394;-84
2022/10/01 01:24:03;;;;;;;28.95;21.60;;;21.30;69.60;;;;;;4997344;28;20045;-85
2022/10/01 01:26:43;;;;;;;38.28;24.95;;;21.40;68.90;;;;;;4995742;28;20037;-84
2022/10/01 01:29:20;;;;;;;36.47;24.17;;;21.60;68.30;;;;;;5012766;28;20136;-85
2022/10/01 01:31:47;;;;;;;28.83;21.42;;;21.80;67.80;;;;;;5012168;28;20026;-82
2022/10/01 01:34:22;;;;;;;25.17;20.50;;;21.80;67.90;;;;;;5012336;28;20131;-81
2022/10/01 01:36:57;;;;;;;24.95;20.20;;;21.90;67.40;;;;;;4990132;28;20464;-83
2022/10/01 01:39:27;;;;;;;25.25;20.48;;;21.80;67.60;;;;;;4995574;28;20065;-84
2022/10/01 01:41:58;;;;;;;24.08;18.92;;;21.80;67.70;;;;;;5011759;28;20048;-83
2022/10/01 01:44:29;;;;;;;25.85;20.23;;;21.80;67.80;;;;;;4994742;28;20049;-85
2022/10/01 01:46:56;;;;;;;26.80;20.73;;;21.90;67.50;;;;;;4995748;28;20029;-82
2022/10/01 01:49:23;;;;;;;25.15;19.17;;;21.90;67.00;;;;;;4995391;28;20042;-83
2022/10/01 01:52:00;;;;;;;27.75;21.45;;;21.80;67.30;;;;;;5012554;28;20065;-83
2022/10/01 01:54:28;;;;;;;25.55;19.45;;;21.80;67.40;;;;;;5016904;28;20456;-83
2022/10/01 01:56:57;;;;;;;37.10;23.92;;;21.90;67.40;;;;;;5052919;28;20025;-83
2022/10/01 01:59:23;;;;;;;29.60;21.33;;;21.90;67.00;;;;;;5051948;28;20025;-83
2022/10/01 02:01:49;;;;;;;28.48;21.23;;;21.80;67.80;;;;;;5047132;28;20017;-85
2022/10/01 02:04:21;;;;;;;31.48;21.35;;;21.80;67.60;;;;;;5053304;28;20090;-86
2022/10/01 02:07:20;;;;;;;24.15;19.13;;;22.00;67.10;;;;;;5052136;28;20040;-83
2022/10/01 02:10:19;;;;;;;27.27;20.30;;;22.00;67.00;;;;;;5053496;28;20079;-83
2022/10/01 02:12:45;;;;;;;28.55;20.05;;;22.00;67.00;;;;;;5051912;28;20025;-84
2022/10/01 02:15:22;;;;;;;28.38;19.85;;;22.00;67.00;;;;;;5052586;28;20079;-84
2022/10/01 02:18:21;;;;;;;23.88;18.55;;;22.20;66.50;;;;;;5053374;28;20376;-83
2022/10/01 02:21:02;;;;;;;22.92;18.33;;;22.20;66.60;;;;;;5052641;28;20045;-82
2022/10/01 02:23:33;;;;;;;20.15;16.10;;;22.00;66.80;;;;;;5054061;28;20518;-81
2022/10/01 02:26:05;;;;;;;22.35;16.95;;;21.80;67.40;;;;;;5054845;28;20471;-80
2022/10/01 02:28:32;;;;;;;21.17;16.48;;;21.70;67.60;;;;;;5054400;28;20036;-82
2022/10/01 02:30:59;;;;;;;19.95;16.05;;;21.70;67.60;;;;;;5072177;28;20032;-82
2022/10/01 02:33:29;;;;;;;20.83;17.00;;;21.70;67.70;;;;;;5053900;28;20479;-82
2022/10/01 02:35:56;;;;;;;;;;;21.80;67.40;;;;;;5073411;28;20020;-83
2022/10/01 02:38:24;;;;;;;20.63;16.42;;;21.90;67.40;;;;;;5072930;28;19909;-83
2022/10/01 02:40:53;;;;;;;27.05;19.45;;;22.00;67.00;;;;;;5072425;28;20587;-83
2022/10/01 02:43:24;;;;;;;20.48;15.82;;;22.10;66.60;;;;;;5073017;28;20032;-82
2022/10/01 02:45:58;;;;;;;23.38;17.70;;;22.10;66.90;;;;;;5053023;28;20096;-85
2022/10/01 02:48:26;;;;;;;28.98;19.48;;;22.20;66.70;;;;;;5053422;28;20495;-83
2022/10/01 02:50:56;;;;;;;34.10;20.23;;;22.30;66.80;;;;;;5035652;28;20025;-83
2022/10/01 02:53:33;;;;;;;18.55;15.40;;;22.40;66.30;;;;;;5035151;28;20043;-84
2022/10/01 02:56:02;;;;;;;16.90;14.82;;;22.20;66.50;;;;;;5035686;28;20036;-83
2022/10/01 02:58:28;;;;;;;26.98;17.35;;;21.60;68.40;;;;;;5034941;28;20029;-82
2022/10/01 03:00:54;;;;;;;26.88;18.23;;;21.50;68.90;;;;;;5053016;28;20025;-83
2022/10/01 03:03:19;;;;;;;29.73;20.35;;;21.80;67.70;;;;;;5052782;28;20488;-83
2022/10/01 03:05:45;;;;;;;17.95;15.73;;;22.00;67.30;;;;;;5052863;28;20020;-81
2022/10/01 03:08:11;;;;;;;26.17;17.98;;;21.90;67.70;;;;;;5055220;28;20499;-85
2022/10/01 03:10:36;;;;;;;25.38;18.70;;;21.70;67.90;;;;;;5073330;28;20025;-82
2022/10/01 03:13:05;;;;;;;26.05;18.42;;;21.90;67.50;;;;;;5054544;28;20597;-83
2022/10/01 03:15:31;;;;;;;26.95;18.88;;;22.10;66.90;;;;;;5053710;28;20476;-81
2022/10/01 03:17:56;;;;;;;29.38;20.88;;;22.30;66.40;;;;;;5071798;28;20031;-82
2022/10/01 03:20:22;;;;;;;26.30;18.75;;;22.40;66.00;;;;;;5058345;28;20032;-81
2022/10/01 03:22:48;;;;;;;33.40;21.65;;;22.50;65.70;;;;;;5057082;28;20045;-80
2022/10/01 03:25:14;;;;;;;21.20;16.48;;;22.60;65.50;;;;;;5075295;28;20031;-81
2022/10/01 03:27:41;;;;;;;26.92;19.30;;;22.20;66.50;;;;;;5076143;28;20039;-82
2022/10/01 03:30:07;;;;;;;19.38;16.10;;;22.00;67.60;;;;;;5057971;28;20024;-82
2022/10/01 03:32:33;;;;;;;19.05;14.75;;;22.00;67.60;;;;;;5076036;28;20192;-82
2022/10/01 03:34:58;;;;;;;18.02;15.40;;;21.60;67.80;;;;;;5076086;28;20130;-82
2022/10/01 03:37:24;;;;;;;35.35;21.17;;;21.00;69.50;;;;;;5075673;28;20028;-84
2022/10/01 03:39:50;;;;;;;27.13;18.90;;;20.90;70.80;;;;;;5057465;28;20481;-82
2022/10/01 03:42:16;;;;;;;24.70;18.55;;;21.20;70.00;;;;;;5074962;28;20529;-82
2022/10/01 03:44:42;;;;;;;27.50;20.05;;;21.70;68.60;;;;;;5057835;28;20041;-86
2022/10/01 03:47:09;;;;;;;27.27;19.38;;;22.00;67.50;;;;;;5073812;28;20029;-81
2022/10/01 03:49:35;;;;;;;25.65;18.90;;;22.20;66.70;;;;;;5071209;28;20056;-81
2022/10/01 03:52:02;;;;;;;21.27;16.30;;;22.30;66.40;;;;;;5067688;28;20056;-82
2022/10/01 03:54:30;;;;;;;27.00;20.05;;;22.30;66.00;;;;;;5075501;28;20029;-82
2022/10/01 03:56:56;;;;;;;33.33;21.15;;;22.30;66.10;;;;;;5076045;28;20063;-82
2022/10/01 03:59:21;;;;;;;25.83;19.50;;;22.40;66.20;;;;;;5074822;28;20037;-82
2022/10/01 04:01:47;;;;;;;23.73;17.45;;;22.40;66.10;;;;;;5073159;28;20107;-81
2022/10/01 04:04:13;;;;;;;22.08;17.20;;;22.40;66.10;;;;;;5053291;28;20086;-83
2022/10/01 04:06:39;;;;;;;30.60;20.65;;;22.30;66.40;;;;;;5075432;28;20368;-84
2022/10/01 04:09:06;;;;;;;22.65;17.10;;;22.30;66.30;;;;;;5068533;28;20032;-84
2022/10/01 04:11:31;;;;;;;23.70;18.52;;;22.40;66.30;;;;;;5052629;28;20040;-83
2022/10/01 04:13:57;;;;;;;21.42;17.52;;;22.50;66.00;;;;;;5058390;28;20063;-79
2022/10/01 04:16:23;;;;;;;26.38;19.30;;;22.40;66.40;;;;;;5073573;28;20060;-83
2022/10/01 04:18:49;;;;;;;25.85;19.40;;;22.50;66.20;;;;;;5057397;28;20086;-83
2022/10/01 04:21:15;;;;;;;23.80;18.85;;;22.50;66.10;;;;;;5067512;28;20045;-85
2022/10/01 04:23:41;;;;;;;22.80;16.92;;;22.50;65.90;;;;;;5037054;28;20368;-84
2022/10/01 04:26:07;;;;;;;22.92;16.98;;;22.50;66.30;;;;;;5037036;28;20024;-82
2022/10/01 04:28:32;;;;;;;20.55;15.95;;;22.40;66.20;;;;;;5051270;28;20025;-84
2022/10/01 04:33:43;;;;;;;21.48;16.25;;;22.40;66.60;;;;;;5066324;28;20075;-81
2022/10/01 04:36:09;;;;;;;19.92;15.95;;;22.50;66.40;;;;;;5075820;28;20060;-83
2022/10/01 04:38:35;;;;;;;19.05;15.50;;;22.40;66.40;;;;;;5054757;28;20163;-83
2022/10/01 04:41:00;;;;;;;20.30;15.82;;;22.50;66.50;;;;;;5057646;28;20472;-79
2022/10/01 04:43:26;;;;;;;20.65;15.30;;;22.50;66.10;;;;;;5075711;28;20115;-83
2022/10/01 04:45:52;;;;;;;18.05;13.52;;;22.50;66.40;;;;;;5075373;28;20021;-80
2022/10/01 04:48:17;;;;;;;23.67;16.75;;;22.50;66.50;;;;;;5075317;28;20024;-82
2022/10/01 04:50:43;;;;;;;20.85;15.52;;;22.50;66.60;;;;;;5057411;28;20035;-82
2022/10/01 04:53:09;;;;;;;19.65;15.40;;;22.50;66.30;;;;;;5075032;28;20526;-80
2022/10/01 04:55:35;;;;;;;18.13;14.30;;;22.60;66.20;;;;;;5075159;28;20111;-81
2022/10/01 04:58:01;;;;;;;23.48;16.77;;;22.70;65.90;;;;;;5057286;28;20074;-84
2022/10/01 05:00:27;;;;;;;15.63;12.98;;;22.60;66.10;;;;;;5064188;28;20025;-84
2022/10/01 05:02:53;;;;;;;17.30;12.50;;;22.20;66.90;;;;;;5040650;28;20102;-81
2022/10/01 05:05:21;;;;;;;28.40;19.10;;;21.60;68.80;;;;;;5048284;28;20039;-83
2022/10/01 05:07:47;;;;;;;20.48;17.00;;;21.40;69.90;;;;;;5037381;28;20036;-83
2022/10/01 05:10:19;;;;;;;26.27;17.80;;;21.30;70.20;;;;;;5037050;28;20025;-84
2022/10/01 05:12:46;;;;;;;24.08;17.52;;;21.50;69.40;;;;;;5066544;28;20162;-85
2022/10/01 05:15:12;;;;;;;16.83;13.88;;;21.90;68.50;;;;;;5071167;28;20414;-84
2022/10/01 05:17:38;;;;;;;18.35;15.77;;;22.00;68.20;;;;;;5061212;28;20033;-87
2022/10/01 05:20:06;;;;;;;18.02;14.55;;;21.70;68.90;;;;;;5074534;28;20383;-85
2022/10/01 05:22:32;;;;;;;25.83;17.40;;;21.10;70.40;;;;;;5074934;28;20052;-84
2022/10/01 05:24:59;;;;;;;26.08;18.02;;;21.20;70.60;;;;;;5074696;28;20391;-83
2022/10/01 05:27:26;;;;;;;18.60;14.65;;;21.60;69.50;;;;;;5056963;28;20049;-84
2022/10/01 05:29:52;;;;;;;17.63;13.70;;;21.90;68.40;;;;;;5057014;28;20025;-84
2022/10/01 05:32:18;;;;;;;26.58;18.17;;;21.80;68.80;;;;;;5074572;28;20020;-83
2022/10/01 05:34:44;;;;;;;27.13;18.80;;;21.60;69.60;;;;;;5056837;28;20396;-84
2022/10/01 05:37:10;;;;;;;22.60;17.15;;;21.90;68.90;;;;;;5056794;28;20028;-83
2022/10/01 05:39:37;;;;;;;39.70;25.50;;;22.10;68.10;;;;;;5056794;28;20020;-84
2022/10/01 05:42:03;;;;;;;27.52;19.30;;;22.20;68.10;;;;;;5056131;28;20031;-86
2022/10/01 05:44:36;;;;;;;19.38;16.20;;;22.30;67.70;;;;;;5056960;28;20094;-85
2022/10/01 05:47:03;;;;;;;30.00;20.75;;;22.10;68.00;;;;;;5057202;28;20097;-84
2022/10/01 05:49:29;;;;;;;33.05;20.30;;;21.80;69.30;;;;;;5057105;28;20078;-81
2022/10/01 05:51:55;;;;;;;27.35;20.00;;;22.00;68.80;;;;;;5056570;28;20020;-83
2022/10/01 05:54:22;;;;;;;25.95;19.77;;;22.20;67.80;;;;;;5074572;28;20025;-83
2022/10/01 05:56:48;;;;;;;22.77;16.83;;;22.30;67.60;;;;;;5056666;28;20020;-82
2022/10/01 05:59:14;;;;;;;27.92;19.25;;;22.40;67.40;;;;;;5073803;28;20027;-81
2022/10/01 06:01:40;;;;;;;24.45;17.30;;;22.40;67.60;;;;;;5067399;28;20021;-84
2022/10/01 06:04:05;;;;;;;26.02;19.85;;;22.50;67.40;;;;;;5061848;28;20090;-84
2022/10/01 06:06:31;;;;;;;28.20;20.63;;;22.40;67.20;;;;;;5045662;28;20059;-81
2022/10/01 06:08:58;;;;;;;27.52;19.00;;;22.40;67.60;;;;;;5043071;28;20511;-84
2022/10/01 06:11:25;;;;;;;30.02;19.33;;;22.30;67.40;;;;;;5062119;28;20388;-84
2022/10/01 06:13:51;;;;;;;26.15;17.45;;;22.30;68.00;;;;;;5073709;28;20021;-84
2022/10/01 06:16:18;;;;;;;26.35;19.10;;;22.30;67.40;;;;;;5056335;28;20025;-84
2022/10/01 06:18:45;;;;;;;22.88;17.50;;;22.30;67.70;;;;;;5055983;28;20032;-83
2022/10/01 06:21:11;;;;;;;25.75;19.00;;;22.40;67.60;;;;;;5055499;28;20040;-84
2022/10/01 06:23:37;;;;;;;26.83;18.95;;;22.40;67.60;;;;;;5073753;28;20028;-85
2022/10/01 06:26:07;;;;;;;24.52;18.48;;;22.40;67.50;;;;;;5055939;28;20483;-85
2022/10/01 06:28:33;;;;;;;;;;;22.40;67.50;;;;;;5074319;28;20103;-81
2022/10/01 06:31:02;;;;;;;24.42;18.33;;;22.30;67.30;;;;;;5073760;28;20049;-84
2022/10/01 06:33:28;;;;;;;28.48;20.02;;;22.30;67.90;;;;;;5073810;28;20103;-81
2022/10/01 06:35:54;;;;;;;30.65;20.02;;;22.40;67.60;;;;;;5055714;28;20037;-81
2022/10/01 06:38:21;;;;;;;31.85;21.75;;;22.50;67.30;;;;;;5055634;28;20437;-84
2022/10/01 06:40:54;;;;;;;21.63;16.73;;;22.60;67.20;;;;;;5055686;28;20028;-82
2022/10/01 06:43:21;;;;;;;35.38;21.67;;;22.40;67.20;;;;;;5055949;28;20032;-85
2022/10/01 06:45:47;;;;;;;28.67;19.50;;;22.10;68.60;;;;;;5055989;28;20016;-85
2022/10/01 06:48:15;;;;;;;25.17;18.00;;;22.20;68.70;;;;;;5055528;28;20438;-82
2022/10/01 06:50:43;;;;;;;31.42;20.42;;;22.40;67.90;;;;;;5055952;28;20031;-83
2022/10/01 06:53:08;;;;;;;42.72;24.15;;;22.60;67.00;;;;;;5054371;28;20048;-83
2022/10/01 06:55:35;;;;;;;27.98;20.17;;;22.70;66.90;;;;;;5055288;28;20055;-83
2022/10/01 06:58:04;;;;;;;25.88;19.45;;;22.70;67.00;;;;;;5073315;28;20044;-84
2022/10/01 07:00:33;;;;;;;110.93;54.70;;;22.60;67.50;;;;;;5055381;28;20028;-85
2022/10/01 07:02:59;;;;;;;34.65;23.73;;;22.60;67.60;;;;;;5073276;28;20072;-84
2022/10/01 07:05:26;;;;;;;25.27;19.38;;;22.60;67.30;;;;;;5073058;28;20025;-82
2022/10/01 07:07:52;;;;;;;31.33;22.38;;;22.50;67.70;;;;;;5055469;28;20032;-82
2022/10/01 07:10:19;;;;;;;26.77;19.70;;;22.40;68.20;;;;;;5073134;28;20021;-82
2022/10/01 07:12:49;;;;;;;47.20;25.65;;;22.50;68.20;;;;;;5072754;28;20028;-82
2022/10/01 07:15:24;;;;;;;30.10;20.60;;;22.40;68.20;;;;;;5072810;28;20025;-80
2022/10/01 07:17:51;;;;;;;21.80;17.52;;;22.50;68.10;;;;;;4686943;28;10000818;-81
2022/10/01 07:20:19;;;;;;;26.42;19.27;;;22.60;68.10;;;;;;5050769;28;20017;-81
2022/10/01 07:22:46;;;;;;;23.05;17.98;;;22.00;69.40;;;;;;5033864;28;20049;-81
2022/10/01 07:25:13;;;;;;;25.25;18.35;;;22.00;69.40;;;;;;5050913;28;20032;-83
2022/10/01 07:27:39;;;;;;;25.85;19.25;;;21.70;70.20;;;;;;5049094;28;20432;-82
2022/10/01 07:30:06;;;;;;;34.50;23.83;;;21.40;71.70;;;;;;5048581;28;20395;-85
2022/10/01 07:32:34;;;;;;;29.75;20.60;;;21.60;71.10;;;;;;5049746;28;20451;-81
2022/10/01 07:35:00;;;;;;;32.90;22.20;;;22.10;70.00;;;;;;5050793;28;20117;-81
2022/10/01 07:37:26;;;;;;;29.10;20.75;;;22.40;69.10;;;;;;5033281;28;20606;-81
2022/10/01 07:39:51;;;;;;;32.80;21.13;;;22.40;68.50;;;;;;5050374;28;20515;-82
2022/10/01 07:42:18;;;;;;;33.47;22.40;;;22.60;68.50;;;;;;5048909;28;20044;-80
2022/10/01 07:44:46;;;;;;;33.20;21.77;;;22.70;68.30;;;;;;5050705;28;20063;-82
2022/10/01 07:47:12;;;;;;;30.77;20.80;;;22.90;67.80;;;;;;5050923;28;20021;-86
2022/10/01 07:49:37;;;;;;;21.38;16.15;;;23.10;67.50;;;;;;5051397;28;20032;-84
2022/10/01 07:52:04;;;;;;;36.95;20.92;;;23.20;67.00;;;;;;5051063;28;20377;-84
2022/10/01 07:54:30;;;;;;;27.55;18.70;;;23.20;67.00;;;;;;5049411;28;20083;-82
2022/10/01 07:56:56;;;;;;;24.35;18.50;;;23.20;67.00;;;;;;5031502;28;20021;-84
2022/10/01 07:59:22;;;;;;;20.80;16.77;;;22.90;67.30;;;;;;5049763;28;20021;-85
2022/10/01 08:01:50;;;;;;;23.30;18.10;;;22.10;69.90;;;;;;5052280;28;20017;-83
2022/10/01 08:07:00;;;;;;;31.40;20.80;;;21.60;71.60;;;;;;5055646;28;20063;-84
2022/10/01 08:09:26;;;;;;;25.52;18.15;;;21.80;71.80;;;;;;5055698;28;20051;-84
2022/10/01 08:11:52;;;;;;;28.83;19.42;;;22.10;70.90;;;;;;5054972;28;20881;-83
2022/10/01 08:14:19;;;;;;;29.80;21.35;;;22.20;70.90;;;;;;5054163;28;20079;-83
2022/10/01 08:16:46;;;;;;;31.42;21.40;;;22.40;70.40;;;;;;5055242;28;20031;-83
2022/10/01 08:19:13;;;;;;;30.17;21.15;;;22.80;69.00;;;;;;5037796;28;20032;-83
2022/10/01 08:21:39;;;;;;;29.35;20.00;;;23.00;68.10;;;;;;5054152;28;20122;-84
2022/10/01 08:24:05;;;;;;;31.73;21.40;;;23.20;68.00;;;;;;5055492;28;20095;-84
2022/10/01 08:26:31;;;;;;;32.17;21.77;;;23.40;67.70;;;;;;5066187;28;20039;-83
2022/10/01 08:28:57;;;;;;;29.40;19.80;;;23.40;67.50;;;;;;5056722;28;20036;-83
2022/10/01 08:31:23;;;;;;;29.40;19.70;;;23.50;67.30;;;;;;5073974;28;20025;-82
2022/10/01 08:33:49;;;;;;;28.73;24.90;;;23.40;67.30;;;;;;5074575;28;20066;-83
2022/10/01 08:36:15;;;;;;;27.50;21.17;;;23.30;67.40;;;;;;5056274;28;20029;-82
2022/10/01 08:38:44;;;;;;;29.65;20.77;;;22.90;68.80;;;;;;5055806;28;20032;-81
2022/10/01 08:41:38;;;;;;;31.40;20.48;;;22.90;68.80;;;;;;5056571;28;20020;-82
2022/10/01 08:44:08;;;;;;;24.13;18.73;;;23.20;68.50;;;;;;5056973;28;20551;-83
2022/10/01 08:46:36;;;;;;;29.55;20.02;;;23.20;69.10;;;;;;5075513;28;20356;-84
2022/10/01 08:49:12;;;;;;;22.50;16.90;;;23.20;68.70;;;;;;5057215;28;20748;-83
2022/10/01 08:51:52;;;;;;;27.05;20.92;;;23.30;68.20;;;;;;5056575;28;20070;-82
2022/10/01 08:54:38;;;;;;;30.48;20.42;;;23.30;68.50;;;;;;5055932;28;20106;-81
2022/10/01 08:57:10;;;;;;;28.60;19.63;;;23.40;68.30;;;;;;5055822;28;20033;-82
2022/10/01 08:59:54;;;;;;;21.52;17.30;;;23.60;67.80;;;;;;5073599;28;20052;-82
2022/10/01 09:02:28;;;;;;;24.42;17.20;;;23.70;67.70;;;;;;5074148;28;20473;-83
2022/10/01 09:05:01;;;;;;;21.75;16.73;;;23.20;69.00;;;;;;5073912;28;20036;-85
2022/10/01 09:07:51;;;;;;;21.30;17.30;;;23.00;69.80;;;;;;5075207;28;20025;-85
2022/10/01 09:10:43;;;;;;;24.17;19.17;;;22.80;70.30;;;;;;5057783;28;20094;-82
2022/10/01 09:13:31;;;;;;;34.03;24.92;;;22.80;70.50;;;;;;5057402;28;20318;-82
2022/10/01 09:16:04;;;;;;;24.17;18.58;;;23.10;70.70;;;;;;5056330;28;20052;-84
2022/10/01 09:18:30;;;;;;;26.13;21.63;;;23.10;69.70;;;;;;5057903;28;20024;-85
2022/10/01 09:20:57;;;;;;;22.88;20.25;;;23.00;70.30;;;;;;5057270;28;20024;-83
2022/10/01 09:23:33;;;;;;;31.70;26.55;;;23.00;70.60;;;;;;5057718;28;20058;-84
2022/10/01 09:25:58;;;;;;;20.90;16.23;;;23.00;70.70;;;;;;5075109;28;20075;-83
2022/10/01 09:28:37;;;;;;;19.85;16.70;;;22.80;70.60;;;;;;5075000;28;20479;-85
2022/10/01 09:31:31;;;;;;;20.73;16.42;;;22.80;71.40;;;;;;5057434;28;20108;-86
2022/10/01 09:34:05;;;;;;;21.50;16.85;;;22.80;71.40;;;;;;5070152;28;20483;-83
2022/10/01 09:36:36;;;;;;;19.80;15.77;;;22.70;72.40;;;;;;5057030;28;20021;-85
2022/10/01 09:39:08;;;;;;;20.48;16.08;;;22.70;72.30;;;;;;5057171;28;20495;-85
2022/10/01 09:41:33;;;;;;;19.80;14.77;;;22.60;72.90;;;;;;5074615;28;20107;-89
2022/10/01 09:44:00;;;;;;;21.60;16.83;;;22.60;72.10;;;;;;5074673;28;20041;-86
2022/10/01 09:46:26;;;;;;;21.48;17.58;;;22.70;72.80;;;;;;5056960;28;20017;-88
2022/10/01 09:49:08;;;;;;;18.00;15.40;;;22.60;72.80;;;;;;5074680;28;20025;-88
2022/10/01 09:51:43;;;;;;;20.40;16.70;;;22.60;72.20;;;;;;5056971;28;20031;-87
2022/10/01 09:54:20;;;;;;;19.98;16.10;;;22.50;73.10;;;;;;5040062;28;20444;-89
2022/10/01 09:57:12;;;;;;;20.50;16.60;;;22.40;73.70;;;;;;5056762;28;20407;-92
2022/10/01 09:59:41;;;;;;;34.05;30.85;;;22.40;73.70;;;;;;5063245;28;20114;-87
2022/10/01 10:02:18;;;;;;;23.05;16.75;;;22.70;74.10;;;;;;5056714;28;20029;-90
2022/10/01 10:04:44;;;;;;;20.35;15.63;;;23.10;73.50;;;;;;5056879;28;20047;-88
2022/10/01 10:07:16;;;;;;;19.27;15.18;;;23.60;72.90;;;;;;5057327;28;20032;-89
2022/10/01 10:09:42;;;;;;;17.85;14.00;;;24.00;72.00;;;;;;5056506;28;20029;-94
2022/10/01 10:12:25;;;;;;;15.15;13.02;;;24.20;70.10;;;;;;5056848;28;20033;-85
2022/10/01 10:14:54;;;;;;;17.08;14.00;;;23.90;70.50;;;;;;5040735;28;20464;-89
2022/10/01 10:17:21;;;;;;;16.88;13.85;;;23.70;71.20;;;;;;5056439;28;20032;-86
2022/10/01 10:19:51;;;;;;;16.73;13.40;;;23.50;72.50;;;;;;5056076;28;20031;-90
2022/10/01 10:22:25;;;;;;;18.60;14.82;;;23.30;71.90;;;;;;5056448;28;20055;-88
2022/10/01 10:24:52;;;;;;;18.27;14.40;;;23.30;72.60;;;;;;5056092;28;20081;-91
2022/10/01 10:27:25;;;;;;;18.40;15.30;;;23.10;73.00;;;;;;5055609;28;20021;-84
2022/10/01 10:30:07;;;;;;;16.50;13.70;;;23.00;74.90;;;;;;5056277;28;20075;-83
2022/10/01 10:32:33;;;;;;;17.17;13.88;;;22.90;73.70;;;;;;5056222;28;20027;-86
2022/10/01 10:35:04;;;;;;;19.50;15.68;;;23.20;73.80;;;;;;5056070;28;20025;-83
2022/10/01 10:37:49;;;;;;;18.75;15.85;;;23.50;73.00;;;;;;5055810;28;20372;-89
2022/10/01 10:40:22;;;;;;;18.13;15.32;;;23.60;72.20;;;;;;5039537;28;20233;-83
2022/10/01 10:42:56;;;;;;;21.55;16.27;;;23.00;73.20;;;;;;5055691;28;20036;-81
2022/10/01 10:45:32;;;;;;;20.88;16.45;;;22.70;75.70;;;;;;5055740;28;20470;-85
2022/10/01 10:47:59;;;;;;;21.15;16.30;;;22.80;74.90;;;;;;5073693;28;20092;-83
2022/10/01 10:50:32;;;;;;;21.90;17.95;;;22.70;74.80;;;;;;5055602;28;20024;-83
2022/10/01 10:52:58;;;;;;;25.45;17.77;;;23.00;74.60;;;;;;5054552;28;20024;-88
2022/10/01 10:55:30;;;;;;;22.05;17.80;;;23.10;74.40;;;;;;5055785;28;20031;-84
2022/10/01 10:58:17;;;;;;;24.00;17.40;;;23.60;73.00;;;;;;5055812;28;20052;-87
2022/10/01 11:00:46;;;;;;;22.85;18.33;;;24.10;71.20;;;;;;5056360;28;20074;-81
2022/10/01 11:03:15;;;;;;;24.08;18.67;;;24.20;71.40;;;;;;5055231;28;20041;-81
2022/10/01 11:05:42;;;;;;;21.08;18.27;;;24.50;70.00;;;;;;4720930;28;10000232;-86
2022/10/01 11:08:17;;;;;;;23.70;18.98;;;24.20;70.50;;;;;;5055383;28;20037;-86
2022/10/01 11:10:51;;;;;;;23.50;17.70;;;24.00;71.50;;;;;;5055390;28;20372;-81
2022/10/01 11:13:38;;;;;;;23.45;17.63;;;24.00;70.50;;;;;;5055004;28;20037;-84
2022/10/01 11:16:28;;;;;;;22.25;18.38;;;24.00;71.40;;;;;;5054627;28;20112;-86
2022/10/01 11:18:57;;;;;;;20.43;16.47;;;24.10;71.70;;;;;;4704823;28;10000092;-84
2022/10/01 11:21:56;;;;;;;21.33;17.38;;;24.20;70.60;;;;;;5054317;28;20049;-83
2022/10/01 11:24:55;;;;;;;22.23;17.23;;;24.40;70.30;;;;;;5053575;28;20395;-85
2022/10/01 11:28:06;;;;;;;24.88;18.42;;;24.10;70.30;;;;;;5109576;27;20414;-81
2022/10/01 11:30:40;;;;;;;20.30;17.73;;;24.20;70.70;;;;;;5108280;28;20032;-87
2022/10/01 11:33:18;;;;;;;20.88;17.60;;;24.30;70.60;;;;;;5108329;28;20395;-83
2022/10/01 11:35:54;;;;;;;21.67;18.20;;;24.60;70.60;;;;;;5109286;28;20060;-82
2022/10/01 11:39:05;;;;;;;22.23;18.38;;;24.70;69.80;;;;;;5107553;28;20073;-84
2022/10/01 11:42:07;;;;;;;24.83;17.58;;;24.90;69.60;;;;;;5103910;28;20378;-84
2022/10/01 11:44:49;;;;;;;22.50;17.98;;;24.90;68.90;;;;;;5069605;28;20036;-86
2022/10/01 11:47:22;;;;;;;26.70;19.50;;;24.80;68.70;;;;;;5086575;28;20178;-83
2022/10/01 11:50:04;;;;;;;22.52;17.88;;;24.70;69.50;;;;;;5086827;28;20136;-83
2022/10/01 11:52:38;;;;;;;26.73;20.20;;;24.70;68.80;;;;;;5068542;28;20028;-82
2022/10/01 12:01:19;;;;;;;23.60;19.50;;;25.30;69.00;;;;;;5068723;28;20060;-86
2022/10/01 12:03:52;;;;;;;28.00;20.42;;;25.30;68.20;;;;;;5051042;28;20025;-85
2022/10/01 12:06:27;;;;;;;27.02;19.95;;;25.40;68.10;;;;;;5067878;28;20284;-83
2022/10/01 12:09:01;;;;;;;25.70;20.48;;;25.60;68.00;;;;;;5049348;28;20068;-84
2022/10/01 12:11:39;;;;;;;29.58;21.38;;;25.90;67.30;;;;;;5067686;28;20025;-86
2022/10/01 12:14:18;;;;;;;27.17;20.50;;;26.10;66.60;;;;;;5066145;28;20110;-83
2022/10/01 12:16:50;;;;;;;27.87;20.97;;;26.30;66.20;;;;;;5066845;28;20037;-83
2022/10/01 12:19:32;;;;;;;28.67;20.73;;;26.40;65.60;;;;;;5050689;28;20827;-84
2022/10/01 12:22:09;;;;;;;26.30;18.73;;;26.50;65.70;;;;;;5067469;28;20478;-83
2022/10/01 12:24:42;;;;;;;28.13;20.70;;;26.60;65.30;;;;;;5067653;28;20035;-86
2022/10/01 12:27:27;;;;;;;22.73;18.30;;;26.20;65.90;;;;;;5066748;28;20060;-85
2022/10/01 12:30:07;;;;;;;28.05;20.30;;;25.90;66.90;;;;;;5067237;28;20033;-83
2022/10/01 12:32:57;;;;;;;25.98;19.73;;;25.90;67.60;;;;;;5067360;28;20419;-86
2022/10/01 12:35:47;;;;;;;23.90;18.48;;;25.90;67.70;;;;;;5096371;28;20035;-87
2022/10/01 12:38:26;;;;;;;21.88;17.38;;;25.80;67.80;;;;;;5100538;28;20066;-82
2022/10/01 12:41:15;;;;;;;32.10;24.35;;;25.50;68.30;;;;;;5096209;28;20027;-85
2022/10/01 12:43:57;;;;;;;25.83;19.63;;;25.50;68.60;;;;;;5094644;28;20383;-86
2022/10/01 12:46:29;;;;;;;43.58;32.53;;;25.50;68.40;;;;;;5095951;28;20293;-86
2022/10/01 12:48:56;;;;;;;33.88;25.58;;;25.70;68.40;;;;;;5094748;28;20020;-85
2022/10/01 12:51:35;;;;;;;166.50;102.75;;;25.80;67.30;;;;;;5095994;28;20434;-82
2022/10/01 12:54:29;;;;;;;118.70;79.43;;;25.80;67.30;;;;;;5096001;28;20021;-87
2022/10/01 12:57:27;;;;;;;37.13;27.48;;;25.70;67.20;;;;;;5094809;28;20024;-87
2022/10/01 13:00:19;;;;;;;53.67;39.35;;;25.80;67.70;;;;;;5085641;28;20051;-86